createdAt,value
2024-03-22T00:00:00.327Z,61.87
2024-03-22T00:00:50.296Z,61.97
2024-03-22T00:01:42.506Z,61.94
2024-03-22T00:02:30.357Z,62.03
2024-03-22T00:03:20.413Z,61.97
2024-03-22T00:04:10.467Z,61.93
2024-03-22T00:05:00.591Z,61.84
2024-03-22T00:05:50.846Z,61.94
2024-03-22T00:06:40.863Z,61.93
2024-03-22T00:07:30.928Z,61.92
2024-03-22T00:08:20.968Z,61.84
2024-03-22T00:09:11.033Z,61.90
2024-03-22T00:10:01.110Z,61.90
2024-03-22T00:10:51.203Z,61.93
2024-03-22T00:11:41.228Z,61.85
2024-03-22T00:12:31.315Z,61.85
2024-03-22T00:13:21.350Z,61.86
2024-03-22T00:14:11.429Z,61.90
2024-03-22T00:15:01.623Z,61.99
2024-03-22T00:15:51.696Z,61.99
2024-03-22T00:16:41.721Z,61.96
2024-03-22T00:17:31.791Z,61.94
2024-03-22T00:18:21.823Z,61.90
2024-03-22T00:19:11.916Z,61.92
2024-03-22T00:20:01.957Z,61.93
2024-03-22T00:20:52.029Z,61.96
2024-03-22T00:21:42.120Z,61.99
2024-03-22T00:22:32.103Z,61.95
2024-03-22T00:23:22.160Z,61.89
2024-03-22T00:24:12.451Z,61.93
2024-03-22T00:25:02.510Z,61.87
2024-03-22T00:25:52.607Z,61.86
2024-03-22T00:26:42.859Z,61.92
2024-03-22T00:27:32.941Z,61.85
2024-03-22T00:28:23.008Z,61.74
2024-03-22T00:29:13.294Z,61.67
2024-03-22T00:30:03.370Z,61.75
2024-03-22T00:30:53.424Z,61.80
2024-03-22T00:31:43.488Z,61.83
2024-03-22T00:32:33.546Z,61.84
2024-03-22T00:33:23.557Z,61.87
2024-03-22T00:34:13.636Z,61.85
2024-03-22T00:35:03.658Z,61.79
2024-03-22T00:35:53.756Z,61.80
2024-03-22T00:36:43.788Z,61.87
2024-03-22T00:37:33.860Z,61.90
2024-03-22T00:38:24.098Z,61.85
2024-03-22T00:39:14.180Z,61.82
2024-03-22T00:40:04.221Z,61.86
2024-03-22T00:40:54.587Z,61.87
2024-03-22T00:41:44.586Z,61.89
2024-03-22T00:42:34.668Z,61.85
2024-03-22T00:43:24.699Z,61.86
2024-03-22T00:44:14.767Z,61.83
2024-03-22T00:45:04.801Z,61.79
2024-03-22T00:45:54.858Z,61.83
2024-03-22T00:46:44.887Z,61.80
2024-03-22T00:47:34.962Z,61.82
2024-03-22T00:48:24.966Z,61.83
2024-03-22T00:49:15.041Z,61.73
2024-03-22T00:50:05.082Z,61.80
2024-03-22T00:50:55.144Z,61.83
2024-03-22T00:51:45.175Z,61.84
2024-03-22T00:52:35.230Z,61.79
2024-03-22T00:53:25.288Z,61.84
2024-03-22T00:54:15.375Z,61.88
2024-03-22T00:55:05.445Z,61.88
2024-03-22T00:55:55.528Z,61.89
2024-03-22T00:56:45.758Z,61.90
2024-03-22T00:57:35.814Z,61.90
2024-03-22T00:58:25.842Z,61.94
2024-03-22T00:59:16.175Z,61.91
2024-03-22T01:00:06.209Z,61.94
2024-03-22T01:00:56.323Z,61.87
2024-03-22T01:01:46.620Z,61.88
2024-03-22T01:02:36.663Z,61.91
2024-03-22T01:03:26.719Z,61.88
2024-03-22T01:04:17.056Z,61.92
2024-03-22T01:05:07.116Z,61.74
2024-03-22T01:05:57.173Z,61.78
2024-03-22T01:06:47.198Z,61.76
2024-03-22T01:07:37.249Z,61.76
2024-03-22T01:08:27.282Z,61.67
2024-03-22T01:09:17.354Z,61.72
2024-03-22T01:10:07.428Z,61.80
2024-03-22T01:10:57.482Z,61.83
2024-03-22T01:11:47.512Z,61.83
2024-03-22T01:12:37.552Z,61.86
2024-03-22T01:13:27.583Z,61.75
2024-03-22T01:14:17.664Z,61.78
2024-03-22T01:15:07.688Z,61.80
2024-03-22T01:15:57.842Z,61.80
2024-03-22T01:16:47.830Z,61.80
2024-03-22T01:17:37.922Z,61.74
2024-03-22T01:18:27.943Z,61.89
2024-03-22T01:19:18.020Z,61.82
2024-03-22T01:20:08.273Z,61.84
2024-03-22T01:20:58.393Z,61.70
2024-03-22T01:21:48.375Z,61.71
2024-03-22T01:22:38.425Z,61.73
2024-03-22T01:23:28.453Z,61.75
2024-03-22T01:24:18.502Z,61.79
2024-03-22T01:25:08.547Z,61.78
2024-03-22T01:25:58.621Z,61.78
2024-03-22T01:26:48.656Z,61.77
2024-03-22T01:27:38.720Z,61.85
2024-03-22T01:28:28.760Z,61.84
2024-03-22T01:29:18.822Z,61.80
2024-03-22T01:30:08.892Z,61.76
2024-03-22T01:30:58.968Z,61.77
2024-03-22T01:31:48.997Z,61.78
2024-03-22T01:32:39.070Z,61.77
2024-03-22T01:33:29.087Z,61.78
2024-03-22T01:34:19.429Z,61.76
2024-03-22T01:35:09.528Z,61.57
2024-03-22T01:35:59.592Z,61.69
2024-03-22T01:36:49.893Z,61.78
2024-03-22T01:37:39.950Z,61.81
2024-03-22T01:38:29.971Z,61.72
2024-03-22T01:39:21.037Z,61.73
2024-03-22T01:40:10.083Z,61.77
2024-03-22T01:41:00.163Z,61.78
2024-03-22T01:41:50.179Z,61.74
2024-03-22T01:42:40.220Z,61.42
2024-03-22T01:43:30.266Z,61.53
2024-03-22T01:44:20.314Z,61.35
2024-03-22T01:45:10.598Z,61.50
2024-03-22T01:46:00.662Z,61.69
2024-03-22T01:46:50.698Z,61.71
2024-03-22T01:47:40.742Z,61.75
2024-03-22T01:48:30.772Z,61.70
2024-03-22T01:49:20.816Z,61.69
2024-03-22T01:50:10.859Z,61.63
2024-03-22T01:51:00.945Z,61.74
2024-03-22T01:51:50.980Z,61.79
2024-03-22T01:52:41.069Z,61.75
2024-03-22T01:53:31.112Z,61.70
2024-03-22T01:54:21.421Z,61.75
2024-03-22T01:55:11.490Z,61.66
2024-03-22T01:56:01.581Z,61.73
2024-03-22T01:56:51.881Z,61.70
2024-03-22T01:57:41.954Z,61.78
2024-03-22T01:58:32.002Z,61.64
2024-03-22T01:59:22.333Z,61.82
2024-03-22T02:00:12.398Z,61.75
2024-03-22T02:01:02.469Z,61.72
2024-03-22T02:01:52.484Z,61.77
2024-03-22T02:02:42.558Z,61.73
2024-03-22T02:03:32.645Z,61.74
2024-03-22T02:04:22.672Z,61.78
2024-03-22T02:05:12.701Z,61.81
2024-03-22T02:06:02.759Z,61.77
2024-03-22T02:06:52.780Z,61.86
2024-03-22T02:07:42.885Z,61.78
2024-03-22T02:08:33.175Z,61.79
2024-03-22T02:09:23.199Z,61.84
2024-03-22T02:10:13.239Z,61.83
2024-03-22T02:11:03.328Z,61.79
2024-03-22T02:11:53.357Z,61.76
2024-03-22T02:12:43.428Z,61.73
2024-03-22T02:13:33.476Z,61.79
2024-03-22T02:14:23.528Z,61.76
2024-03-22T02:15:13.537Z,61.81
2024-03-22T02:16:03.626Z,61.84
2024-03-22T02:16:53.657Z,61.77
2024-03-22T02:17:44.029Z,61.76
2024-03-22T02:18:34.031Z,61.87
2024-03-22T02:19:24.110Z,61.84
2024-03-22T02:20:14.144Z,61.87
2024-03-22T02:21:04.251Z,61.88
2024-03-22T02:21:54.287Z,61.78
2024-03-22T02:22:44.332Z,61.74
2024-03-22T02:23:34.381Z,61.81
2024-03-22T02:24:24.437Z,61.61
2024-03-22T02:25:14.513Z,61.42
2024-03-22T02:26:04.607Z,61.58
2024-03-22T02:26:54.824Z,61.74
2024-03-22T02:27:44.865Z,61.76
2024-03-22T02:28:34.934Z,61.80
2024-03-22T02:29:24.967Z,61.77
2024-03-22T02:30:15.012Z,61.70
2024-03-22T02:31:05.123Z,61.70
2024-03-22T02:31:55.144Z,61.74
2024-03-22T02:32:45.216Z,61.72
2024-03-22T02:33:35.247Z,61.69
2024-03-22T02:34:25.294Z,61.73
2024-03-22T02:35:15.344Z,61.74
2024-03-22T02:36:05.685Z,61.80
2024-03-22T02:36:56.334Z,61.79
2024-03-22T02:37:45.795Z,61.86
2024-03-22T02:38:35.820Z,61.87
2024-03-22T02:39:25.897Z,61.87
2024-03-22T02:40:15.947Z,61.85
2024-03-22T02:41:06.023Z,61.87
2024-03-22T02:41:56.054Z,61.89
2024-03-22T02:42:46.081Z,61.80
2024-03-22T02:43:36.159Z,61.79
2024-03-22T02:44:26.235Z,61.85
2024-03-22T02:45:16.268Z,61.94
2024-03-22T02:46:06.540Z,61.83
2024-03-22T02:46:56.573Z,61.82
2024-03-22T02:47:46.613Z,61.85
2024-03-22T02:48:36.943Z,61.94
2024-03-22T02:49:26.989Z,61.96
2024-03-22T02:50:17.058Z,61.87
2024-03-22T02:51:07.112Z,61.86
2024-03-22T02:51:57.140Z,61.69
2024-03-22T02:52:47.186Z,61.73
2024-03-22T02:53:37.230Z,61.81
2024-03-22T02:54:27.298Z,61.85
2024-03-22T02:55:17.421Z,61.91
2024-03-22T02:56:07.423Z,61.94
2024-03-22T02:56:57.462Z,61.92
2024-03-22T02:57:47.511Z,61.89
2024-03-22T02:58:37.551Z,61.85
2024-03-22T02:59:27.596Z,61.89
2024-03-22T03:00:17.627Z,61.94
2024-03-22T03:01:07.678Z,61.95
2024-03-22T03:01:57.753Z,61.96
2024-03-22T03:02:47.830Z,61.96
2024-03-22T03:03:37.869Z,61.99
2024-03-22T03:04:27.920Z,61.97
2024-03-22T03:05:17.939Z,62.00
2024-03-22T03:06:08.075Z,61.94
2024-03-22T03:06:58.012Z,61.96
2024-03-22T03:07:48.068Z,61.88
2024-03-22T03:08:38.145Z,61.93
2024-03-22T03:09:28.212Z,61.97
2024-03-22T03:10:18.253Z,62.00
2024-03-22T03:11:08.330Z,62.02
2024-03-22T03:11:58.353Z,62.03
2024-03-22T03:12:48.415Z,61.96
2024-03-22T03:13:38.489Z,61.91
2024-03-22T03:14:28.566Z,61.90
2024-03-22T03:15:18.686Z,61.95
2024-03-22T03:16:08.756Z,61.91
2024-03-22T03:16:59.366Z,61.94
2024-03-22T03:17:48.844Z,61.97
2024-03-22T03:18:38.867Z,61.94
2024-03-22T03:19:28.914Z,61.94
2024-03-22T03:20:18.952Z,61.85
2024-03-22T03:21:09.023Z,61.84
2024-03-22T03:21:59.094Z,61.88
2024-03-22T03:22:49.167Z,61.88
2024-03-22T03:23:39.199Z,61.91
2024-03-22T03:24:29.273Z,61.90
2024-03-22T03:25:19.307Z,61.87
2024-03-22T03:26:09.435Z,61.93
2024-03-22T03:26:59.447Z,61.96
2024-03-22T03:27:49.476Z,61.96
2024-03-22T03:28:39.505Z,61.96
2024-03-22T03:29:29.586Z,62.04
2024-03-22T03:30:19.643Z,62.01
2024-03-22T03:31:09.696Z,61.99
2024-03-22T03:31:59.730Z,61.98
2024-03-22T03:32:49.814Z,62.01
2024-03-22T03:33:39.843Z,62.04
2024-03-22T03:34:29.883Z,62.03
2024-03-22T03:35:19.947Z,62.00
2024-03-22T03:36:10.055Z,62.01
2024-03-22T03:37:00.088Z,62.00
2024-03-22T03:37:50.373Z,62.04
2024-03-22T03:38:40.457Z,62.03
2024-03-22T03:39:30.464Z,61.98
2024-03-22T03:40:20.491Z,62.03
2024-03-22T03:41:10.618Z,61.89
2024-03-22T03:42:00.630Z,62.01
2024-03-22T03:42:50.728Z,62.06
2024-03-22T03:43:40.769Z,62.03
2024-03-22T03:44:30.808Z,62.07
2024-03-22T03:45:20.844Z,62.07
2024-03-22T03:46:10.907Z,62.05
2024-03-22T03:47:01.197Z,62.03
2024-03-22T03:47:51.260Z,62.02
2024-03-22T03:48:41.288Z,62.03
2024-03-22T03:49:31.374Z,61.98
2024-03-22T03:50:21.423Z,61.95
2024-03-22T03:51:11.491Z,62.00
2024-03-22T03:52:01.522Z,61.93
2024-03-22T03:52:51.605Z,61.93
2024-03-22T03:53:41.657Z,61.94
2024-03-22T03:54:31.725Z,61.91
2024-03-22T03:55:21.754Z,61.86
2024-03-22T03:56:11.811Z,61.90
2024-03-22T03:57:01.845Z,61.96
2024-03-22T03:57:51.885Z,62.02
2024-03-22T03:58:41.937Z,62.00
2024-03-22T03:59:31.992Z,62.03
2024-03-22T04:00:22.073Z,62.04
2024-03-22T04:01:12.162Z,61.99
2024-03-22T04:02:02.190Z,61.99
2024-03-22T04:02:52.533Z,62.06
2024-03-22T04:03:42.571Z,62.03
2024-03-22T04:04:32.653Z,61.99
2024-03-22T04:05:22.677Z,61.98
2024-03-22T04:06:12.737Z,62.03
2024-03-22T04:07:02.752Z,62.07
2024-03-22T04:07:52.838Z,62.04
2024-03-22T04:08:42.898Z,62.07
2024-03-22T04:09:32.954Z,62.02
2024-03-22T04:10:22.979Z,62.06
2024-03-22T04:11:13.058Z,62.09
2024-03-22T04:12:03.084Z,62.05
2024-03-22T04:12:53.157Z,62.07
2024-03-22T04:13:43.189Z,62.06
2024-03-22T04:14:33.273Z,62.07
2024-03-22T04:15:23.334Z,62.09
2024-03-22T04:16:13.387Z,62.08
2024-03-22T04:17:03.422Z,62.01
2024-03-22T04:17:53.464Z,62.00
2024-03-22T04:18:43.762Z,62.05
2024-03-22T04:19:33.835Z,62.05
2024-03-22T04:20:23.880Z,62.05
2024-03-22T04:21:13.947Z,62.05
2024-03-22T04:22:03.976Z,62.05
2024-03-22T04:22:54.052Z,61.98
2024-03-22T04:23:44.145Z,61.97
2024-03-22T04:24:34.131Z,62.03
2024-03-22T04:25:24.225Z,62.05
2024-03-22T04:26:14.279Z,62.08
2024-03-22T04:27:04.330Z,62.08
2024-03-22T04:27:54.367Z,62.09
2024-03-22T04:28:44.407Z,62.12
2024-03-22T04:29:34.458Z,62.10
2024-03-22T04:30:24.492Z,62.13
2024-03-22T04:31:14.544Z,62.07
2024-03-22T04:32:04.627Z,62.09
2024-03-22T04:32:54.693Z,62.08
2024-03-22T04:33:44.761Z,61.94
2024-03-22T04:34:35.051Z,61.69
2024-03-22T04:35:25.118Z,61.95
2024-03-22T04:36:15.216Z,62.08
2024-03-22T04:37:05.513Z,62.09
2024-03-22T04:37:55.572Z,62.04
2024-03-22T04:38:45.622Z,62.09
2024-03-22T04:39:35.685Z,62.07
2024-03-22T04:40:25.763Z,62.11
2024-03-22T04:41:15.848Z,62.07
2024-03-22T04:42:05.886Z,62.02
2024-03-22T04:42:55.973Z,62.05
2024-03-22T04:43:45.993Z,61.97
2024-03-22T04:44:36.076Z,62.07
2024-03-22T04:45:26.162Z,62.09
2024-03-22T04:46:16.394Z,62.06
2024-03-22T04:47:06.406Z,62.06
2024-03-22T04:47:56.477Z,62.02
2024-03-22T04:48:46.791Z,62.06
2024-03-22T04:49:36.833Z,62.14
2024-03-22T04:50:26.872Z,62.15
2024-03-22T04:51:16.972Z,62.12
2024-03-22T04:52:07.022Z,62.08
2024-03-22T04:52:57.052Z,62.11
2024-03-22T04:53:47.129Z,62.05
2024-03-22T04:54:37.161Z,62.07
2024-03-22T04:55:27.195Z,62.09
2024-03-22T04:56:17.284Z,62.08
2024-03-22T04:57:07.333Z,62.17
2024-03-22T04:57:57.380Z,62.14
2024-03-22T04:58:47.415Z,62.03
2024-03-22T04:59:37.446Z,62.13
2024-03-22T05:00:27.493Z,62.07
2024-03-22T05:01:17.545Z,62.13
2024-03-22T05:02:07.632Z,62.08
2024-03-22T05:02:57.690Z,62.17
2024-03-22T05:03:47.722Z,62.18
2024-03-22T05:04:38.748Z,62.16
2024-03-22T05:05:28.086Z,62.21
2024-03-22T05:06:18.155Z,62.19
2024-03-22T05:07:08.187Z,62.14
2024-03-22T05:07:58.261Z,62.19
2024-03-22T05:08:48.331Z,62.15
2024-03-22T05:09:38.404Z,62.18
2024-03-22T05:10:28.442Z,62.18
2024-03-22T05:11:18.500Z,62.20
2024-03-22T05:12:08.541Z,62.18
2024-03-22T05:12:58.597Z,62.17
2024-03-22T05:13:48.879Z,62.18
2024-03-22T05:14:38.945Z,62.15
2024-03-22T05:15:28.994Z,62.17
2024-03-22T05:16:19.096Z,62.17
2024-03-22T05:17:09.106Z,62.18
2024-03-22T05:17:59.163Z,62.21
2024-03-22T05:18:49.179Z,62.26
2024-03-22T05:19:39.231Z,62.27
2024-03-22T05:20:29.394Z,62.27
2024-03-22T05:21:19.485Z,62.25
2024-03-22T05:22:09.503Z,62.22
2024-03-22T05:22:59.550Z,62.24
2024-03-22T05:23:49.570Z,62.23
2024-03-22T05:24:39.643Z,62.26
2024-03-22T05:25:29.946Z,62.29
2024-03-22T05:26:19.778Z,62.31
2024-03-22T05:27:09.821Z,62.26
2024-03-22T05:27:59.863Z,62.30
2024-03-22T05:28:49.899Z,62.27
2024-03-22T05:29:39.997Z,62.31
2024-03-22T05:30:30.003Z,62.25
2024-03-22T05:31:20.074Z,62.30
2024-03-22T05:32:10.098Z,62.26
2024-03-22T05:33:00.160Z,62.26
2024-03-22T05:33:50.256Z,62.28
2024-03-22T05:34:40.301Z,62.29
2024-03-22T05:35:30.345Z,62.26
2024-03-22T05:36:20.701Z,62.29
2024-03-22T05:37:10.745Z,62.24
2024-03-22T05:38:00.802Z,62.25
2024-03-22T05:38:50.849Z,62.26
2024-03-22T05:39:40.893Z,62.23
2024-03-22T05:40:30.936Z,62.26
2024-03-22T05:41:22.038Z,62.25
2024-03-22T05:42:11.032Z,62.31
2024-03-22T05:43:01.081Z,62.27
2024-03-22T05:43:51.125Z,62.27
2024-03-22T05:44:41.217Z,62.26
2024-03-22T05:45:31.246Z,62.28
2024-03-22T05:46:21.325Z,62.28
2024-03-22T05:47:13.150Z,62.22
2024-03-22T05:48:01.634Z,62.31
2024-03-22T05:48:51.786Z,62.29
2024-03-22T05:49:41.883Z,62.31
2024-03-22T05:50:31.893Z,62.33
2024-03-22T05:51:21.944Z,62.34
2024-03-22T05:52:11.985Z,62.31
2024-03-22T05:53:02.023Z,62.33
2024-03-22T05:53:52.064Z,62.37
2024-03-22T05:54:42.128Z,62.36
2024-03-22T05:55:32.160Z,62.38
2024-03-22T05:56:22.239Z,62.33
2024-03-22T05:57:12.276Z,62.31
2024-03-22T05:58:02.315Z,62.31
2024-03-22T05:58:52.348Z,62.34
2024-03-22T05:59:42.420Z,62.30
2024-03-22T06:00:32.701Z,62.30
2024-03-22T06:01:22.746Z,62.27
2024-03-22T06:02:12.784Z,62.32
2024-03-22T06:03:02.828Z,62.31
2024-03-22T06:03:52.867Z,62.29
2024-03-22T06:04:45.102Z,62.34
2024-03-22T06:05:32.975Z,62.36
2024-03-22T06:06:23.038Z,62.35
2024-03-22T06:07:13.110Z,62.36
2024-03-22T06:08:03.157Z,62.34
2024-03-22T06:08:53.229Z,62.31
2024-03-22T06:09:43.282Z,62.35
2024-03-22T06:10:33.303Z,62.37
2024-03-22T06:11:23.396Z,62.40
2024-03-22T06:12:13.445Z,62.40
2024-03-22T06:13:03.730Z,62.40
2024-03-22T06:13:53.770Z,62.32
2024-03-22T06:14:43.848Z,62.35
2024-03-22T06:15:33.880Z,62.30
2024-03-22T06:16:23.926Z,62.35
2024-03-22T06:17:13.969Z,62.37
2024-03-22T06:18:04.007Z,62.40
2024-03-22T06:18:54.040Z,62.41
2024-03-22T06:19:44.138Z,62.41
2024-03-22T06:20:34.173Z,62.41
2024-03-22T06:21:24.258Z,62.44
2024-03-22T06:22:14.284Z,62.40
2024-03-22T06:23:04.323Z,62.39
2024-03-22T06:23:54.356Z,62.42
2024-03-22T06:24:44.439Z,62.40
2024-03-22T06:25:34.474Z,62.41
2024-03-22T06:26:35.255Z,62.37
2024-03-22T06:27:15.613Z,62.43
2024-03-22T06:28:04.670Z,62.44
2024-03-22T06:28:54.692Z,62.43
2024-03-22T06:29:44.760Z,62.41
2024-03-22T06:30:34.758Z,62.41
2024-03-22T06:31:24.837Z,62.39
2024-03-22T06:32:14.898Z,62.40
2024-03-22T06:33:05.198Z,62.44
2024-03-22T06:33:55.238Z,62.42
2024-03-22T06:34:45.356Z,62.42
2024-03-22T06:35:35.341Z,62.37
2024-03-22T06:36:25.414Z,62.48
2024-03-22T06:37:15.508Z,62.41
2024-03-22T06:38:05.523Z,62.45
2024-03-22T06:38:55.561Z,62.39
2024-03-22T06:39:45.634Z,62.42
2024-03-22T06:40:35.665Z,62.44
2024-03-22T06:41:25.756Z,62.41
2024-03-22T06:42:16.475Z,62.39
2024-03-22T06:43:05.855Z,62.40
2024-03-22T06:43:55.881Z,62.40
2024-03-22T06:44:45.932Z,62.40
2024-03-22T06:45:35.955Z,62.41
2024-03-22T06:46:26.040Z,62.40
2024-03-22T06:47:16.092Z,62.49
2024-03-22T06:48:06.140Z,62.42
2024-03-22T06:48:56.181Z,62.38
2024-03-22T06:49:46.227Z,62.43
2024-03-22T06:50:36.249Z,62.41
2024-03-22T06:51:26.336Z,62.40
2024-03-22T06:52:16.406Z,62.39
2024-03-22T06:53:06.459Z,62.37
2024-03-22T06:53:56.515Z,62.37
2024-03-22T06:54:46.539Z,62.41
2024-03-22T06:55:36.569Z,62.45
2024-03-22T06:56:26.616Z,62.41
2024-03-22T06:57:16.709Z,62.42
2024-03-22T06:58:06.753Z,62.41
2024-03-22T06:58:56.791Z,62.45
2024-03-22T06:59:46.858Z,62.42
2024-03-22T07:00:36.887Z,62.38
2024-03-22T07:01:26.953Z,62.46
2024-03-22T07:02:17.009Z,62.43
2024-03-22T07:03:07.065Z,62.46
2024-03-22T07:03:57.129Z,62.47
2024-03-22T07:04:47.158Z,62.53
2024-03-22T07:05:37.200Z,62.54
2024-03-22T07:06:27.256Z,62.44
2024-03-22T07:07:17.331Z,62.48
2024-03-22T07:08:07.375Z,62.49
2024-03-22T07:08:57.470Z,62.45
2024-03-22T07:09:47.489Z,62.48
2024-03-22T07:10:37.581Z,62.46
2024-03-22T07:11:27.741Z,62.46
2024-03-22T07:12:17.667Z,62.50
2024-03-22T07:13:07.697Z,62.50
2024-03-22T07:13:57.735Z,62.54
2024-03-22T07:14:47.773Z,62.50
2024-03-22T07:15:37.812Z,62.52
2024-03-22T07:16:27.856Z,62.45
2024-03-22T07:17:17.908Z,62.46
2024-03-22T07:18:07.970Z,62.48
2024-03-22T07:18:58.029Z,62.52
2024-03-22T07:19:48.100Z,62.51
2024-03-22T07:20:38.130Z,62.48
2024-03-22T07:21:28.182Z,62.53
2024-03-22T07:22:18.218Z,62.52
2024-03-22T07:23:08.259Z,62.52
2024-03-22T07:23:58.287Z,62.53
2024-03-22T07:24:48.348Z,62.50
2024-03-22T07:25:38.362Z,62.48
2024-03-22T07:26:31.051Z,62.51
2024-03-22T07:27:18.494Z,62.50
2024-03-22T07:28:08.541Z,62.54
2024-03-22T07:28:58.608Z,62.44
2024-03-22T07:29:48.703Z,62.46
2024-03-22T07:30:38.719Z,62.49
2024-03-22T07:31:28.784Z,62.50
2024-03-22T07:32:18.839Z,62.49
2024-03-22T07:33:08.896Z,62.48
2024-03-22T07:33:58.955Z,62.48
2024-03-22T07:34:49.031Z,62.45
2024-03-22T07:35:39.326Z,62.52
2024-03-22T07:36:29.396Z,62.50
2024-03-22T07:37:22.048Z,62.51
2024-03-22T07:38:09.493Z,62.53
2024-03-22T07:38:59.532Z,62.56
2024-03-22T07:39:49.588Z,62.53
2024-03-22T07:40:39.608Z,62.50
2024-03-22T07:41:30.128Z,62.59
2024-03-22T07:42:19.734Z,62.55
2024-03-22T07:43:09.770Z,62.56
2024-03-22T07:43:59.890Z,62.55
2024-03-22T07:44:50.000Z,62.60
2024-03-22T07:45:40.013Z,62.55
2024-03-22T07:46:30.049Z,62.56
2024-03-22T07:47:20.133Z,62.49
2024-03-22T07:48:10.180Z,62.53
2024-03-22T07:49:00.223Z,62.59
2024-03-22T07:49:50.258Z,62.56
2024-03-22T07:50:40.320Z,62.60
2024-03-22T07:51:30.410Z,62.56
2024-03-22T07:52:20.462Z,62.55
2024-03-22T07:53:10.458Z,62.57
2024-03-22T07:54:00.475Z,62.56
2024-03-22T07:54:50.573Z,62.56
2024-03-22T07:55:40.576Z,62.61
2024-03-22T07:56:30.613Z,62.58
2024-03-22T07:57:20.717Z,62.60
2024-03-22T07:58:10.749Z,62.59
2024-03-22T07:59:00.784Z,62.61
2024-03-22T07:59:51.103Z,62.61
2024-03-22T08:00:40.881Z,62.57
2024-03-22T08:01:30.958Z,62.66
2024-03-22T08:02:21.000Z,62.67
2024-03-22T08:03:11.053Z,62.66
2024-03-22T08:04:01.078Z,62.71
2024-03-22T08:04:51.121Z,62.58
2024-03-22T08:05:41.160Z,62.60
2024-03-22T08:06:31.298Z,62.65
2024-03-22T08:07:21.297Z,62.67
2024-03-22T08:08:11.410Z,62.62
2024-03-22T08:09:01.389Z,62.63
2024-03-22T08:09:51.432Z,62.57
2024-03-22T08:10:41.515Z,62.60
2024-03-22T08:11:31.529Z,62.64
2024-03-22T08:12:21.579Z,62.58
2024-03-22T08:13:11.625Z,62.66
2024-03-22T08:14:01.668Z,62.61
2024-03-22T08:14:51.755Z,62.61
2024-03-22T08:15:41.851Z,62.56
2024-03-22T08:16:31.883Z,62.59
2024-03-22T08:17:21.908Z,62.73
2024-03-22T08:18:11.954Z,62.61
2024-03-22T08:19:01.994Z,62.65
2024-03-22T08:19:52.045Z,62.66
2024-03-22T08:20:42.073Z,62.63
2024-03-22T08:21:32.203Z,62.71
2024-03-22T08:22:22.272Z,62.61
2024-03-22T08:23:12.315Z,62.70
2024-03-22T08:24:02.342Z,62.61
2024-03-22T08:24:52.386Z,62.72
2024-03-22T08:25:42.580Z,62.66
2024-03-22T08:26:32.504Z,62.64
2024-03-22T08:27:22.567Z,62.65
2024-03-22T08:28:17.458Z,62.72
2024-03-22T08:29:03.739Z,62.77
2024-03-22T08:29:52.807Z,62.73
2024-03-22T08:30:42.807Z,62.67
2024-03-22T08:31:32.851Z,62.69
2024-03-22T08:32:23.007Z,62.63
2024-03-22T08:33:14.500Z,62.66
2024-03-22T08:34:03.037Z,62.72
2024-03-22T08:34:53.083Z,62.67
2024-03-22T08:35:43.111Z,62.73
2024-03-22T08:36:33.155Z,62.71
2024-03-22T08:37:23.338Z,62.71
2024-03-22T08:38:13.263Z,62.73
2024-03-22T08:39:03.323Z,62.76
2024-03-22T08:39:53.362Z,62.77
2024-03-22T08:40:43.417Z,62.71
2024-03-22T08:41:33.460Z,62.69
2024-03-22T08:42:23.517Z,62.67
2024-03-22T08:43:13.640Z,62.76
2024-03-22T08:44:03.627Z,62.68
2024-03-22T08:44:53.748Z,62.82
2024-03-22T08:45:43.861Z,62.71
2024-03-22T08:46:33.824Z,62.72
2024-03-22T08:47:23.938Z,62.71
2024-03-22T08:48:13.909Z,62.77
2024-03-22T08:49:03.947Z,62.67
2024-03-22T08:49:54.091Z,62.69
2024-03-22T08:50:44.087Z,62.72
2024-03-22T08:51:34.097Z,62.76
2024-03-22T08:52:24.258Z,62.72
2024-03-22T08:53:14.308Z,62.67
2024-03-22T08:54:04.355Z,62.78
2024-03-22T08:54:54.428Z,62.70
2024-03-22T08:55:44.468Z,62.85
2024-03-22T08:56:34.523Z,62.75
2024-03-22T08:57:24.598Z,62.71
2024-03-22T08:58:14.635Z,62.67
2024-03-22T08:59:04.734Z,62.74
2024-03-22T08:59:54.940Z,62.73
2024-03-22T09:00:44.836Z,62.88
2024-03-22T09:01:34.881Z,62.82
2024-03-22T09:02:24.975Z,62.78
2024-03-22T09:03:14.951Z,62.80
2024-03-22T09:04:05.065Z,62.87
2024-03-22T09:04:55.147Z,62.77
2024-03-22T09:05:53.203Z,62.93
2024-03-22T09:06:36.187Z,62.95
2024-03-22T09:07:25.241Z,62.87
2024-03-22T09:08:15.283Z,62.93
2024-03-22T09:09:05.296Z,62.81
2024-03-22T09:09:55.387Z,62.78
2024-03-22T09:10:45.459Z,62.88
2024-03-22T09:11:35.499Z,62.80
2024-03-22T09:12:25.802Z,62.84
2024-03-22T09:13:16.078Z,62.81
2024-03-22T09:14:05.884Z,62.80
2024-03-22T09:14:56.026Z,62.79
2024-03-22T09:15:46.038Z,62.82
2024-03-22T09:16:36.092Z,62.82
2024-03-22T09:17:26.136Z,62.79
2024-03-22T09:18:16.168Z,62.86
2024-03-22T09:19:08.133Z,63.05
2024-03-22T09:19:56.366Z,62.89
2024-03-22T09:20:46.390Z,62.90
2024-03-22T09:21:36.527Z,63.02
2024-03-22T09:22:26.571Z,63.06
2024-03-22T09:23:16.650Z,63.00
2024-03-22T09:24:06.654Z,63.02
2024-03-22T09:24:56.710Z,62.89
2024-03-22T09:25:48.809Z,62.92
2024-03-22T09:26:36.813Z,63.02
2024-03-22T09:27:26.916Z,63.03
2024-03-22T09:28:16.947Z,62.95
2024-03-22T09:29:07.006Z,62.83
2024-03-22T09:29:57.008Z,62.73
2024-03-22T09:30:56.541Z,62.93
2024-03-22T09:31:38.358Z,63.04
2024-03-22T09:32:27.498Z,63.02
2024-03-22T09:33:17.462Z,63.15
2024-03-22T09:34:07.527Z,62.97
2024-03-22T09:34:57.620Z,62.97
2024-03-22T09:35:47.630Z,62.96
2024-03-22T09:36:37.699Z,62.87
2024-03-22T09:37:27.798Z,63.00
2024-03-22T09:38:17.817Z,62.84
2024-03-22T09:39:07.847Z,63.01
2024-03-22T09:39:57.899Z,63.16
2024-03-22T09:40:47.947Z,62.98
2024-03-22T09:41:39.577Z,62.92
2024-03-22T09:42:28.113Z,62.93
2024-03-22T09:43:18.145Z,62.86
2024-03-22T09:44:08.443Z,62.95
2024-03-22T09:44:58.511Z,62.91
2024-03-22T09:45:48.525Z,62.92
2024-03-22T09:46:38.598Z,63.09
2024-03-22T09:47:28.638Z,62.98
2024-03-22T09:48:18.718Z,63.03
2024-03-22T09:49:08.743Z,62.88
2024-03-22T09:49:58.797Z,62.94
2024-03-22T09:50:49.001Z,62.90
2024-03-22T09:51:38.925Z,62.99
2024-03-22T09:52:28.950Z,63.20
2024-03-22T09:53:18.984Z,63.06
2024-03-22T09:54:09.100Z,63.06
2024-03-22T09:54:59.229Z,62.98
2024-03-22T09:55:49.369Z,63.32
2024-03-22T09:56:39.333Z,63.35
2024-03-22T09:57:29.410Z,63.31
2024-03-22T09:58:19.478Z,63.20
2024-03-22T09:59:09.482Z,63.05
2024-03-22T09:59:59.583Z,63.06
2024-03-22T10:00:49.637Z,63.01
2024-03-22T10:01:39.633Z,63.15
2024-03-22T10:02:29.694Z,62.86
2024-03-22T10:03:19.740Z,62.90
2024-03-22T10:04:09.762Z,62.96
2024-03-22T10:04:59.839Z,63.05
2024-03-22T10:05:49.872Z,63.00
2024-03-22T10:06:39.919Z,63.00
2024-03-22T10:07:29.971Z,63.10
2024-03-22T10:08:20.016Z,63.25
2024-03-22T10:09:10.048Z,63.06
2024-03-22T10:10:00.146Z,63.02
2024-03-22T10:10:50.137Z,63.06
2024-03-22T10:11:40.804Z,63.03
2024-03-22T10:12:30.284Z,63.05
2024-03-22T10:13:20.319Z,63.02
2024-03-22T10:14:15.750Z,63.02
2024-03-22T10:15:00.422Z,62.97
2024-03-22T10:15:50.499Z,63.20
2024-03-22T10:16:40.525Z,63.17
2024-03-22T10:17:30.598Z,63.10
2024-03-22T10:18:20.656Z,63.04
2024-03-22T10:19:10.661Z,63.07
2024-03-22T10:20:00.757Z,63.16
2024-03-22T10:20:50.790Z,63.22
2024-03-22T10:21:41.082Z,63.25
2024-03-22T10:22:31.150Z,63.11
2024-03-22T10:23:21.151Z,63.13
2024-03-22T10:24:11.203Z,63.04
2024-03-22T10:25:01.247Z,63.28
2024-03-22T10:25:51.291Z,63.40
2024-03-22T10:26:41.342Z,63.24
2024-03-22T10:27:31.410Z,63.20
2024-03-22T10:28:22.485Z,63.22
2024-03-22T10:29:11.666Z,63.18
2024-03-22T10:30:01.689Z,63.16
2024-03-22T10:30:51.661Z,63.16
2024-03-22T10:31:41.722Z,63.25
2024-03-22T10:32:31.912Z,63.24
2024-03-22T10:33:21.837Z,63.17
2024-03-22T10:34:11.997Z,63.18
2024-03-22T10:35:02.005Z,63.09
2024-03-22T10:35:52.038Z,63.29
2024-03-22T10:36:42.063Z,63.43
2024-03-22T10:37:32.445Z,63.45
2024-03-22T10:38:22.519Z,63.46
2024-03-22T10:39:12.623Z,63.17
2024-03-22T10:40:02.581Z,63.18
2024-03-22T10:40:52.610Z,63.65
2024-03-22T10:41:42.718Z,63.56
2024-03-22T10:42:32.720Z,63.17
2024-03-22T10:43:22.787Z,63.37
2024-03-22T10:44:12.850Z,63.35